Time;durP1;ratioP1;P1;durP2;ratioP2;P2;SDS_P1;SDS_P2;PMS_P1;PMS_P2;Temp;Humidity;BMP_temperature;BMP_pressure;BME280_temperature;BME280_humidity;BME280_pressure;Samples;Min_cycle;Max_cycle;Signal;HPM_P1;HPM_P2
2022/05/28 00:01:11;;;;;;;1.70;1.00;;;8.80;99.90;;;;;;5031849;28;20466;-68
2022/05/28 00:03:37;;;;;;;0.70;0.70;;;8.80;99.90;;;;;;5031669;28;20175;-68
2022/05/28 00:06:08;;;;;;;1.30;1.00;;;8.80;99.90;;;;;;5031865;28;20564;-67
2022/05/28 00:08:34;;;;;;;2.30;1.00;;;8.80;99.90;;;;;;5031966;28;20988;-68
2022/05/28 00:10:59;;;;;;;2.57;0.90;;;8.80;99.90;;;;;;5031374;28;20470;-68
2022/05/28 00:13:25;;;;;;;4.43;1.10;;;8.90;99.90;;;;;;5031521;28;20175;-67
2022/05/28 00:15:51;;;;;;;1.10;1.00;;;8.80;99.90;;;;;;5031850;28;20179;-67
2022/05/28 00:18:17;;;;;;;1.93;1.03;;;8.80;99.90;;;;;;5031709;28;20417;-68
2022/05/28 00:20:42;;;;;;;1.10;0.93;;;8.80;99.90;;;;;;5031886;28;20615;-68
2022/05/28 00:23:08;;;;;;;2.70;1.20;;;8.90;99.90;;;;;;5031389;28;20737;-67
2022/05/28 00:25:33;;;;;;;1.20;1.00;;;8.80;99.90;;;;;;5031084;28;20294;-67
2022/05/28 00:27:59;;;;;;;0.97;0.93;;;8.80;99.90;;;;;;5031420;28;20178;-67
2022/05/28 00:30:24;;;;;;;2.67;1.10;;;8.70;99.90;;;;;;5031584;28;20184;-68
2022/05/28 00:32:50;;;;;;;1.07;1.00;;;8.80;99.90;;;;;;5031292;28;20183;-68
2022/05/28 00:35:18;;;;;;;1.00;0.77;;;8.80;99.90;;;;;;5031072;28;20167;-68
2022/05/28 00:37:44;;;;;;;0.90;0.90;;;8.90;99.90;;;;;;5031195;28;20175;-67
2022/05/28 00:40:15;;;;;;;0.80;0.80;;;8.80;99.90;;;;;;5030724;28;20603;-67
2022/05/28 00:42:40;;;;;;;1.97;1.87;;;8.80;99.90;;;;;;5030876;28;20489;-68
2022/05/28 00:45:07;;;;;;;1.83;1.33;;;8.80;99.90;;;;;;5031358;28;20434;-67
2022/05/28 00:47:32;;;;;;;1.87;1.00;;;8.70;99.90;;;;;;5031197;28;20225;-67
2022/05/28 00:49:58;;;;;;;1.30;1.10;;;8.80;99.90;;;;;;5030977;28;20418;-68
2022/05/28 00:52:26;;;;;;;5.80;1.53;;;8.80;99.90;;;;;;5030952;28;20237;-68
2022/05/28 00:54:52;;;;;;;2.00;0.80;;;8.70;99.90;;;;;;5030687;28;20540;-68
2022/05/28 00:57:20;;;;;;;6.70;1.47;;;8.60;99.90;;;;;;5030864;28;20418;-68
2022/05/28 00:59:46;;;;;;;2.80;1.50;;;8.70;99.90;;;;;;5029661;28;20434;-67
2022/05/28 01:02:42;;;;;;;1.00;0.90;;;8.70;99.90;;;;;;5031742;28;21028;-67
2022/05/28 01:05:14;;;;;;;4.70;2.17;;;8.80;99.90;;;;;;5034912;28;20433;-67
2022/05/28 01:07:56;;;;;;;2.07;1.13;;;8.70;99.90;;;;;;5035136;28;20421;-67
2022/05/28 01:10:29;;;;;;;4.33;1.80;;;8.60;99.90;;;;;;5034781;28;20430;-67
2022/05/28 01:13:11;;;;;;;1.53;1.20;;;8.60;99.90;;;;;;5034832;28;20602;-68
2022/05/28 01:15:48;;;;;;;1.23;1.13;;;8.70;99.90;;;;;;5034569;28;20418;-67
2022/05/28 01:18:20;;;;;;;2.60;2.40;;;8.80;99.90;;;;;;5035148;28;20421;-68
2022/05/28 01:20:51;;;;;;;1.90;0.90;;;8.80;99.90;;;;;;5034941;28;20525;-67
2022/05/28 01:23:16;;;;;;;3.27;1.20;;;8.80;99.90;;;;;;5034756;28;20413;-68
2022/05/28 01:25:59;;;;;;;4.00;1.27;;;8.80;99.90;;;;;;5034407;28;20845;-68
2022/05/28 01:28:31;;;;;;;0.93;0.90;;;8.70;99.90;;;;;;5034679;28;20684;-68
2022/05/28 01:30:58;;;;;;;2.80;0.97;;;8.70;99.90;;;;;;5034709;28;20469;-68
2022/05/28 01:33:24;;;;;;;10.00;2.17;;;8.70;99.90;;;;;;5034452;28;20464;-68
2022/05/28 01:35:51;;;;;;;1.60;1.00;;;8.70;99.90;;;;;;5034234;28;20935;-68
2022/05/28 01:38:18;;;;;;;2.53;1.13;;;8.60;99.90;;;;;;5034579;28;20394;-67
2022/05/28 01:40:45;;;;;;;1.20;1.10;;;8.70;99.90;;;;;;5051197;23;20498;-73
2022/05/28 01:43:13;;;;;;;1.40;0.80;;;8.70;99.90;;;;;;5015015;28;20455;-73
2022/05/28 01:45:44;;;;;;;1.43;1.10;;;8.70;99.90;;;;;;5015108;28;20403;-73
2022/05/28 01:48:10;;;;;;;2.30;2.10;;;8.70;99.90;;;;;;5015361;28;20403;-73
2022/05/28 01:50:43;;;;;;;4.80;1.20;;;8.70;99.90;;;;;;5014791;28;20427;-73
2022/05/28 01:54:07;;;;;;;1.00;0.90;;;8.70;99.90;;;;;;5014586;28;20399;-73
2022/05/28 01:56:00;;;;;;;3.07;1.17;;;8.70;99.90;;;;;;5011979;28;20442;-73
2022/05/28 01:58:26;;;;;;;2.07;1.00;;;8.70;99.90;;;;;;5014956;28;20415;-73
2022/05/28 02:00:51;;;;;;;1.47;0.90;;;8.60;99.90;;;;;;5014511;28;20423;-73
2022/05/28 02:03:17;;;;;;;1.30;0.90;;;8.60;99.90;;;;;;5014490;28;20239;-74
2022/05/28 02:05:43;;;;;;;2.30;1.10;;;8.60;99.90;;;;;;5014872;28;20555;-73
2022/05/28 02:08:08;;;;;;;2.37;1.47;;;8.70;99.90;;;;;;5014818;28;20172;-73
2022/05/28 02:10:38;;;;;;;1.40;1.30;;;8.70;99.90;;;;;;5014594;28;20199;-74
2022/05/28 02:13:16;;;;;;;1.70;1.60;;;8.70;99.90;;;;;;5013374;28;20175;-72
2022/05/28 02:16:01;;;;;;;3.13;1.23;;;8.70;99.90;;;;;;5014224;28;20414;-73
2022/05/28 02:18:41;;;;;;;1.93;1.73;;;8.80;99.90;;;;;;5014537;28;20412;-72
2022/05/28 02:21:09;;;;;;;1.00;0.90;;;8.80;99.90;;;;;;5014203;28;20462;-72
2022/05/28 02:23:58;;;;;;;5.17;1.60;;;8.70;99.90;;;;;;5013983;28;20921;-73
2022/05/28 02:26:43;;;;;;;1.63;1.07;;;8.70;99.90;;;;;;5013826;28;20415;-73
2022/05/28 02:29:09;;;;;;;1.50;1.27;;;8.70;99.90;;;;;;5014487;28;20419;-72
2022/05/28 02:31:35;;;;;;;2.20;1.17;;;8.70;99.90;;;;;;5014157;28;20778;-72
2022/05/28 02:34:01;;;;;;;1.73;1.30;;;8.60;99.90;;;;;;5014307;28;20422;-72
2022/05/28 02:36:29;;;;;;;1.87;1.27;;;8.60;99.90;;;;;;5013657;28;20168;-73
2022/05/28 02:38:54;;;;;;;2.00;1.10;;;8.60;99.90;;;;;;5013950;28;20758;-72
2022/05/28 02:41:21;;;;;;;2.00;1.20;;;8.70;99.90;;;;;;5013459;28;20569;-73
2022/05/28 02:43:46;;;;;;;3.80;1.40;;;8.60;99.90;;;;;;5013911;28;20168;-72
2022/05/28 02:46:12;;;;;;;1.87;0.97;;;8.60;99.90;;;;;;5013635;28;20998;-72
2022/05/28 02:48:39;;;;;;;1.57;1.30;;;8.60;99.90;;;;;;5013826;28;20208;-72
2022/05/28 02:51:07;;;;;;;2.13;1.23;;;8.50;99.90;;;;;;5013648;28;20187;-73
2022/05/28 02:53:32;;;;;;;1.30;1.00;;;8.50;99.90;;;;;;5013474;28;20921;-72
2022/05/28 02:55:58;;;;;;;2.17;1.40;;;8.60;99.90;;;;;;5013242;28;20395;-73
2022/05/28 02:58:24;;;;;;;3.90;1.20;;;8.60;99.90;;;;;;5014153;28;20163;-73
2022/05/28 03:00:49;;;;;;;1.20;0.80;;;8.60;99.90;;;;;;5013793;28;20517;-72
2022/05/28 03:03:19;;;;;;;1.50;1.23;;;8.60;99.90;;;;;;5013235;28;20457;-72
2022/05/28 03:05:45;;;;;;;1.00;0.90;;;8.60;99.90;;;;;;5012748;28;20180;-72
2022/05/28 03:08:11;;;;;;;2.83;1.10;;;8.60;99.90;;;;;;5013177;28;20403;-72
2022/05/28 03:10:36;;;;;;;2.27;1.10;;;8.60;99.90;;;;;;5012947;28;20420;-73
2022/05/28 03:13:02;;;;;;;4.43;1.97;;;8.60;99.90;;;;;;5011703;28;20168;-73
2022/05/28 03:15:27;;;;;;;1.13;0.87;;;8.70;99.90;;;;;;5013293;28;20276;-72
2022/05/28 03:17:53;;;;;;;3.10;1.70;;;8.60;99.90;;;;;;5013442;28;20181;-73
2022/05/28 03:20:18;;;;;;;1.00;0.90;;;8.80;99.90;;;;;;5013290;28;20172;-72
2022/05/28 03:22:44;;;;;;;0.80;0.80;;;8.80;99.90;;;;;;5013331;28;20208;-72
2022/05/28 03:25:09;;;;;;;1.60;1.17;;;8.80;99.90;;;;;;5012792;28;20180;-73
2022/05/28 03:27:35;;;;;;;1.63;1.20;;;8.80;99.90;;;;;;5013158;28;20168;-72
2022/05/28 03:30:00;;;;;;;7.10;2.43;;;8.80;99.90;;;;;;5013228;28;20184;-72
2022/05/28 03:32:26;;;;;;;3.47;1.13;;;8.80;99.90;;;;;;5011729;28;20662;-72
2022/05/28 03:34:51;;;;;;;2.87;1.23;;;9.00;99.90;;;;;;5012673;28;20165;-73
2022/05/28 03:37:17;;;;;;;6.70;1.50;;;9.00;99.90;;;;;;5012796;28;20180;-72
2022/05/28 03:39:42;;;;;;;1.17;0.73;;;9.00;99.90;;;;;;5012727;28;20256;-73
2022/05/28 03:42:08;;;;;;;1.10;1.10;;;9.00;99.90;;;;;;5012673;28;20224;-72
2022/05/28 03:44:33;;;;;;;1.80;0.87;;;9.00;99.90;;;;;;5012572;28;20207;-72
2022/05/28 03:47:00;;;;;;;2.93;1.13;;;9.10;99.90;;;;;;5013032;28;20271;-73
2022/05/28 03:49:29;;;;;;;2.03;1.23;;;9.20;99.90;;;;;;5012824;28;20188;-73
2022/05/28 03:51:55;;;;;;;1.57;1.40;;;9.20;99.90;;;;;;5012800;28;20531;-73
2022/05/28 03:54:21;;;;;;;1.97;1.30;;;9.30;99.90;;;;;;5012830;28;20415;-73
2022/05/28 03:56:48;;;;;;;1.30;1.10;;;9.40;99.90;;;;;;5012470;28;20832;-73
2022/05/28 03:59:14;;;;;;;1.77;0.90;;;9.40;99.90;;;;;;5012665;28;20416;-72
2022/05/28 04:01:40;;;;;;;1.60;1.10;;;9.40;99.90;;;;;;5012239;28;20466;-73
2022/05/28 04:04:05;;;;;;;1.53;0.90;;;9.50;99.90;;;;;;5012525;28;20180;-73
2022/05/28 04:06:33;;;;;;;2.03;1.27;;;9.40;99.90;;;;;;5012063;28;20407;-72
2022/05/28 04:09:00;;;;;;;1.70;1.50;;;9.50;99.90;;;;;;5012307;28;20174;-72
2022/05/28 04:11:25;;;;;;;0.83;0.80;;;9.60;99.90;;;;;;5012195;28;20594;-73
2022/05/28 04:13:51;;;;;;;1.00;0.90;;;9.70;99.90;;;;;;5012276;28;20451;-73
2022/05/28 04:16:16;;;;;;;3.83;1.30;;;9.70;99.90;;;;;;5012041;28;20180;-72
2022/05/28 04:18:43;;;;;;;1.20;0.97;;;9.90;99.90;;;;;;5012064;28;20296;-72
2022/05/28 04:21:09;;;;;;;1.80;1.30;;;10.10;99.90;;;;;;5012245;28;20184;-72
2022/05/28 04:23:34;;;;;;;1.10;0.80;;;10.20;99.90;;;;;;5012353;28;20918;-72
2022/05/28 04:26:00;;;;;;;0.83;0.83;;;10.20;99.90;;;;;;5012176;28;20417;-72
2022/05/28 04:28:26;;;;;;;1.00;0.70;;;10.20;99.90;;;;;;5012448;28;20188;-72
2022/05/28 04:30:51;;;;;;;0.90;0.90;;;10.00;99.90;;;;;;5011998;28;20204;-72
2022/05/28 04:33:16;;;;;;;3.83;1.20;;;10.00;99.90;;;;;;5012478;28;20775;-73
2022/05/28 04:35:42;;;;;;;4.73;1.40;;;9.80;99.90;;;;;;5011310;28;20254;-72
2022/05/28 04:38:08;;;;;;;2.27;1.30;;;9.70;99.90;;;;;;5012868;28;20187;-73
2022/05/28 04:40:33;;;;;;;1.33;1.00;;;9.60;99.90;;;;;;5013354;28;20208;-73
2022/05/28 04:42:58;;;;;;;0.93;0.80;;;9.40;99.90;;;;;;5012330;28;20209;-73
2022/05/28 04:45:24;;;;;;;3.40;1.53;;;9.10;99.90;;;;;;5011795;28;20216;-74
2022/05/28 04:47:49;;;;;;;0.80;0.73;;;9.10;99.90;;;;;;5011763;28;20169;-73
2022/05/28 04:50:15;;;;;;;0.80;0.80;;;9.10;99.90;;;;;;5011507;28;20207;-73
2022/05/28 04:52:41;;;;;;;4.90;1.23;;;9.00;99.90;;;;;;5011698;28;20180;-71
2022/05/28 04:55:08;;;;;;;1.73;0.93;;;9.00;99.90;;;;;;5011377;28;20202;-72
2022/05/28 04:57:33;;;;;;;4.03;1.20;;;9.30;99.90;;;;;;5011625;28;20936;-73
2022/05/28 04:59:59;;;;;;;1.10;1.10;;;9.60;99.90;;;;;;5011764;28;20423;-73
2022/05/28 05:02:24;;;;;;;1.67;1.00;;;10.00;99.90;;;;;;5011539;28;20200;-72
2022/05/28 05:04:57;;;;;;;2.03;1.00;;;9.90;99.90;;;;;;5011466;28;20534;-73
2022/05/28 05:07:23;;;;;;;0.70;0.70;;;9.70;99.90;;;;;;5011753;28;20162;-72
2022/05/28 05:09:49;;;;;;;1.00;0.90;;;9.70;99.90;;;;;;5011733;28;20463;-72
2022/05/28 05:12:14;;;;;;;1.37;1.17;;;9.80;99.90;;;;;;5011426;28;20461;-72
2022/05/28 05:14:40;;;;;;;1.73;0.80;;;10.20;99.90;;;;;;5011161;28;20832;-72
2022/05/28 05:17:05;;;;;;;1.23;0.80;;;10.60;99.90;;;;;;5011393;28;20176;-72
2022/05/28 05:19:31;;;;;;;0.67;0.60;;;11.30;99.90;;;;;;5011657;28;20180;-73
2022/05/28 05:21:56;;;;;;;0.97;0.70;;;10.70;99.90;;;;;;5011183;28;20196;-71
2022/05/28 05:24:23;;;;;;;1.67;0.87;;;10.80;99.90;;;;;;5011297;28;20200;-72
2022/05/28 05:26:48;;;;;;;0.90;0.77;;;11.30;99.90;;;;;;5011354;28;20686;-72
2022/05/28 05:29:14;;;;;;;2.40;0.70;;;10.80;99.90;;;;;;5011533;28;20494;-72
2022/05/28 05:31:40;;;;;;;1.67;0.80;;;11.10;99.90;;;;;;5011524;28;20654;-73
2022/05/28 05:34:09;;;;;;;0.60;0.60;;;11.20;99.90;;;;;;5011335;28;20192;-72
2022/05/28 05:36:35;;;;;;;0.90;0.80;;;11.40;99.90;;;;;;5011515;28;20768;-73
2022/05/28 05:39:00;;;;;;;0.63;0.60;;;12.10;99.90;;;;;;5012051;28;20415;-72
2022/05/28 05:41:26;;;;;;;1.63;1.00;;;12.00;99.90;;;;;;5011366;28;20458;-72
2022/05/28 05:43:51;;;;;;;1.60;0.70;;;11.00;99.90;;;;;;5011577;28;20545;-73
2022/05/28 05:46:17;;;;;;;1.23;0.90;;;10.90;99.90;;;;;;5011801;28;20591;-72
2022/05/28 05:48:43;;;;;;;1.73;0.90;;;10.90;99.90;;;;;;5014437;28;20175;-73
2022/05/28 05:51:15;;;;;;;1.83;0.77;;;10.90;99.90;;;;;;5015168;28;20291;-73
2022/05/28 05:53:42;;;;;;;4.10;1.00;;;10.80;99.90;;;;;;5015087;28;20768;-73
2022/05/28 05:56:08;;;;;;;1.97;1.13;;;11.10;99.90;;;;;;5014704;28;20495;-73
2022/05/28 05:58:34;;;;;;;1.43;1.00;;;11.10;99.90;;;;;;5014927;28;20989;-73
2022/05/28 06:01:02;;;;;;;4.20;1.30;;;10.70;99.90;;;;;;5014716;28;20238;-74
2022/05/28 06:03:27;;;;;;;0.70;0.70;;;10.70;99.90;;;;;;5014713;28;20411;-73
2022/05/28 06:05:58;;;;;;;1.10;0.80;;;10.70;99.90;;;;;;5014843;28;20450;-73
2022/05/28 06:08:23;;;;;;;0.90;0.70;;;10.50;99.90;;;;;;5015199;28;20662;-73
2022/05/28 06:10:49;;;;;;;2.00;0.90;;;10.60;99.90;;;;;;5015536;28;20431;-73
2022/05/28 06:13:14;;;;;;;3.60;1.00;;;10.50;99.90;;;;;;5014767;28;20215;-73
2022/05/28 06:15:40;;;;;;;0.60;0.60;;;10.50;99.90;;;;;;5014910;28;20171;-73
2022/05/28 06:18:06;;;;;;;1.20;0.93;;;10.60;99.90;;;;;;5014879;28;20268;-73
2022/05/28 06:20:31;;;;;;;0.70;0.70;;;10.60;99.90;;;;;;5014855;28;20687;-73
2022/05/28 06:22:56;;;;;;;2.63;0.90;;;10.50;99.90;;;;;;5014613;28;20203;-73
2022/05/28 06:25:22;;;;;;;4.50;1.10;;;10.80;99.90;;;;;;5014457;28;20254;-73
2022/05/28 06:27:47;;;;;;;1.20;1.10;;;10.70;99.90;;;;;;5015133;28;20174;-73
2022/05/28 06:30:13;;;;;;;1.10;1.00;;;10.50;99.90;;;;;;5015102;28;20226;-73
2022/05/28 06:32:39;;;;;;;0.97;0.87;;;10.60;99.90;;;;;;5014927;28;20204;-73
2022/05/28 06:35:05;;;;;;;3.30;1.50;;;10.70;99.90;;;;;;5014281;28;20447;-73
2022/05/28 06:37:30;;;;;;;3.07;1.50;;;10.90;99.90;;;;;;5015094;28;20258;-73
2022/05/28 06:39:56;;;;;;;0.93;0.83;;;10.70;99.90;;;;;;5014664;28;20412;-73
2022/05/28 06:42:21;;;;;;;4.70;1.00;;;10.90;99.90;;;;;;5014139;28;20208;-73
2022/05/28 06:44:47;;;;;;;2.63;1.30;;;11.50;99.90;;;;;;5014439;28;20180;-73
2022/05/28 06:47:12;;;;;;;0.97;0.80;;;11.50;99.90;;;;;;5014190;28;20181;-72
2022/05/28 06:49:38;;;;;;;0.90;0.87;;;11.30;99.90;;;;;;5014240;28;20171;-72
2022/05/28 06:52:03;;;;;;;1.53;1.00;;;11.60;99.90;;;;;;5014072;28;20222;-72
2022/05/28 06:54:29;;;;;;;1.37;1.10;;;11.50;99.90;;;;;;5014399;28;20173;-73
2022/05/28 06:56:54;;;;;;;1.10;0.90;;;11.70;99.90;;;;;;5013696;28;20180;-72
2022/05/28 06:59:20;;;;;;;1.50;0.90;;;11.60;99.90;;;;;;5012813;28;20203;-73
2022/05/28 07:01:45;;;;;;;4.00;1.83;;;11.60;99.90;;;;;;5013329;28;20208;-72
2022/05/28 07:04:11;;;;;;;1.83;0.90;;;11.60;99.90;;;;;;5013650;28;20480;-72
2022/05/28 07:06:36;;;;;;;2.47;0.97;;;11.70;99.90;;;;;;5013565;28;20168;-72
2022/05/28 07:09:05;;;;;;;1.37;0.90;;;12.00;99.90;;;;;;5013725;28;20180;-72
2022/05/28 07:11:30;;;;;;;1.77;0.70;;;12.30;99.90;;;;;;5013301;28;20203;-73
2022/05/28 07:13:56;;;;;;;1.80;0.93;;;12.10;99.90;;;;;;5013490;28;20411;-72
2022/05/28 07:16:21;;;;;;;1.40;1.20;;;12.40;99.90;;;;;;5013683;28;20183;-73
2022/05/28 07:18:47;;;;;;;1.10;0.90;;;12.50;99.90;;;;;;5014164;28;20224;-73
2022/05/28 07:21:13;;;;;;;0.77;0.67;;;12.60;99.90;;;;;;5013839;28;20700;-74
2022/05/28 07:23:38;;;;;;;1.60;1.10;;;13.00;99.90;;;;;;5013549;28;20261;-74
2022/05/28 07:26:05;;;;;;;1.73;0.70;;;13.40;99.90;;;;;;5013651;28;20416;-74
2022/05/28 07:28:33;;;;;;;0.60;0.60;;;14.10;99.90;;;;;;5015929;28;20223;-74
2022/05/28 07:30:59;;;;;;;2.93;1.00;;;14.30;99.90;;;;;;5015158;28;20429;-71
2022/05/28 07:33:26;;;;;;;1.43;0.70;;;13.80;99.90;;;;;;5012981;28;20458;-73
2022/05/28 07:35:56;;;;;;;1.00;0.80;;;13.00;99.90;;;;;;5012863;28;20434;-74
2022/05/28 07:38:23;;;;;;;2.93;0.90;;;13.20;99.90;;;;;;5012929;28;20407;-72
2022/05/28 07:40:50;;;;;;;1.33;0.80;;;12.90;99.90;;;;;;5012785;28;20516;-72
2022/05/28 07:43:16;;;;;;;1.10;0.80;;;12.80;99.90;;;;;;5050545;23;20995;-66
2022/05/28 07:45:43;;;;;;;1.07;0.90;;;13.00;99.90;;;;;;5032272;28;20402;-66
2022/05/28 07:48:10;;;;;;;2.80;1.00;;;12.60;99.90;;;;;;5032376;28;20235;-66
2022/05/28 07:50:35;;;;;;;1.70;0.80;;;12.70;99.90;;;;;;5032375;28;20417;-66
2022/05/28 07:53:02;;;;;;;3.43;0.90;;;12.50;99.90;;;;;;5032272;28;20426;-67
2022/05/28 07:55:28;;;;;;;2.90;1.10;;;12.50;99.90;;;;;;5032351;28;20194;-67
2022/05/28 07:57:54;;;;;;;2.03;0.80;;;12.90;99.90;;;;;;5032085;28;20989;-67
2022/05/28 08:00:20;;;;;;;0.90;0.80;;;13.20;99.90;;;;;;5032067;28;20406;-67
2022/05/28 08:02:46;;;;;;;1.83;0.83;;;13.50;99.90;;;;;;5032216;28;20616;-66
2022/05/28 08:05:11;;;;;;;1.23;0.80;;;14.10;99.90;;;;;;5031779;28;20682;-67
2022/05/28 08:07:37;;;;;;;1.07;0.90;;;13.30;99.90;;;;;;5032239;28;20171;-66
2022/05/28 08:10:03;;;;;;;1.00;0.87;;;13.10;99.90;;;;;;5031881;28;20177;-67
2022/05/28 08:12:28;;;;;;;2.87;0.80;;;12.90;99.90;;;;;;5031694;28;20206;-67
2022/05/28 08:14:54;;;;;;;1.27;0.80;;;13.10;99.90;;;;;;5031746;28;20395;-67
2022/05/28 08:17:19;;;;;;;3.70;1.53;;;13.20;99.90;;;;;;5032310;28;20635;-69
2022/05/28 08:19:45;;;;;;;1.60;1.07;;;13.40;99.90;;;;;;5032451;28;20168;-67
2022/05/28 08:24:55;;;;;;;1.30;0.80;;;14.30;99.90;;;;;;5031203;28;20159;-67
2022/05/28 08:27:21;;;;;;;1.40;0.87;;;14.80;99.90;;;;;;5031049;28;20910;-66
2022/05/28 08:29:46;;;;;;;1.40;0.83;;;14.00;99.90;;;;;;5031309;28;20552;-67
2022/05/28 08:32:16;;;;;;;3.33;0.80;;;14.50;99.90;;;;;;5031370;28;20825;-66
2022/05/28 08:34:43;;;;;;;2.20;1.37;;;14.30;99.90;;;;;;5031347;28;20183;-67
2022/05/28 08:37:09;;;;;;;0.90;0.83;;;13.70;99.90;;;;;;5031370;28;20475;-66
2022/05/28 08:39:35;;;;;;;1.17;0.80;;;13.50;99.90;;;;;;5031315;28;20409;-66
2022/05/28 08:42:00;;;;;;;1.67;0.80;;;14.00;99.90;;;;;;5030947;28;20552;-66
2022/05/28 08:44:41;;;;;;;2.87;1.17;;;14.50;99.90;;;;;;5030894;28;20164;-66
2022/05/28 08:47:24;;;;;;;1.03;0.80;;;14.70;99.90;;;;;;5030911;28;20168;-67
2022/05/28 08:49:51;;;;;;;1.97;1.00;;;14.80;99.90;;;;;;5031254;28;20855;-66
2022/05/28 08:52:33;;;;;;;4.03;1.00;;;14.00;99.90;;;;;;5031120;28;20509;-66
2022/05/28 08:55:07;;;;;;;2.00;1.07;;;14.40;99.90;;;;;;5031125;28;20461;-66
2022/05/28 08:58:06;;;;;;;2.50;1.00;;;14.20;99.90;;;;;;5031411;28;20398;-66
2022/05/28 09:00:39;;;;;;;2.70;1.00;;;14.40;99.90;;;;;;5008562;28;20435;-66
2022/05/28 09:03:20;;;;;;;1.07;0.70;;;14.40;99.90;;;;;;5030830;28;20512;-66
2022/05/28 09:06:00;;;;;;;1.53;0.90;;;13.60;99.90;;;;;;5030750;28;20404;-67
2022/05/28 09:08:46;;;;;;;0.77;0.77;;;13.80;99.90;;;;;;5030940;28;20831;-67
2022/05/28 09:11:35;;;;;;;1.20;0.97;;;13.50;99.90;;;;;;5030662;28;20884;-67
2022/05/28 09:14:19;;;;;;;4.20;0.90;;;13.40;99.90;;;;;;5030753;28;20494;-66
2022/05/28 09:16:46;;;;;;;1.83;1.13;;;13.20;99.90;;;;;;5030571;28;20496;-67
2022/05/28 09:19:19;;;;;;;1.20;1.00;;;13.60;99.90;;;;;;5031076;28;20414;-67
2022/05/28 09:21:46;;;;;;;5.20;1.23;;;13.70;99.90;;;;;;5030499;28;20458;-67
2022/05/28 09:24:18;;;;;;;1.20;1.00;;;13.50;99.90;;;;;;5034509;28;20399;-67
2022/05/28 09:26:56;;;;;;;1.73;1.10;;;13.50;99.90;;;;;;5034642;28;20426;-67
2022/05/28 09:29:43;;;;;;;2.10;0.90;;;14.10;99.90;;;;;;5034843;28;20481;-67
2022/05/28 09:32:38;;;;;;;3.00;1.10;;;13.90;99.90;;;;;;5034970;28;20520;-66
2022/05/28 09:35:15;;;;;;;0.80;0.80;;;14.10;99.90;;;;;;5035033;28;20765;-67
2022/05/28 09:38:09;;;;;;;1.10;1.00;;;14.00;99.90;;;;;;5034646;28;20745;-66
2022/05/28 09:40:53;;;;;;;2.37;1.50;;;14.90;99.90;;;;;;5034538;28;20755;-66
2022/05/28 09:43:43;;;;;;;1.07;0.97;;;15.50;99.90;;;;;;5034038;28;20517;-67
2022/05/28 09:46:27;;;;;;;3.33;1.10;;;15.60;99.90;;;;;;5034725;28;20404;-67
2022/05/28 09:49:12;;;;;;;1.07;0.97;;;15.70;99.90;;;;;;5034912;28;20415;-67
2022/05/28 09:51:38;;;;;;;4.17;0.90;;;16.10;99.90;;;;;;5034549;28;20968;-68
2022/05/28 09:54:17;;;;;;;1.10;0.90;;;16.10;99.90;;;;;;5034355;28;20421;-67
2022/05/28 09:56:46;;;;;;;1.43;1.30;;;15.70;99.90;;;;;;5034222;28;20397;-67
2022/05/28 09:59:26;;;;;;;1.77;1.20;;;15.80;99.90;;;;;;5034471;28;20457;-67
2022/05/28 10:01:56;;;;;;;1.57;1.40;;;15.80;99.90;;;;;;5034275;28;20538;-68
2022/05/28 10:04:31;;;;;;;3.10;1.30;;;15.30;99.90;;;;;;5034284;28;20457;-67
2022/05/28 10:07:04;;;;;;;3.23;1.10;;;14.80;99.90;;;;;;5034379;28;20382;-67
2022/05/28 10:09:34;;;;;;;1.60;0.87;;;14.40;99.90;;;;;;5033993;28;20907;-67
2022/05/28 10:12:18;;;;;;;2.83;1.03;;;14.30;99.90;;;;;;5034188;28;20454;-67
2022/05/28 10:14:44;;;;;;;2.17;0.80;;;14.30;99.90;;;;;;5034158;28;20445;-67
2022/05/28 10:17:23;;;;;;;1.07;0.80;;;14.70;99.90;;;;;;5034243;28;20450;-68
2022/05/28 10:19:52;;;;;;;1.23;1.00;;;14.60;99.90;;;;;;5034608;28;20194;-67
2022/05/28 10:22:20;;;;;;;1.30;1.10;;;15.00;99.90;;;;;;5034327;28;20494;-67
2022/05/28 10:24:50;;;;;;;3.03;1.00;;;15.40;99.90;;;;;;5032150;28;20963;-67
2022/05/28 10:27:35;;;;;;;1.30;1.10;;;15.60;99.90;;;;;;5033461;28;20445;-68
2022/05/28 10:30:06;;;;;;;1.33;1.10;;;15.60;99.90;;;;;;5032447;28;20429;-67
2022/05/28 10:32:41;;;;;;;3.80;1.17;;;15.50;99.90;;;;;;5033223;28;20430;-67
2022/05/28 10:35:14;;;;;;;1.20;0.80;;;15.50;99.90;;;;;;5032213;28;20477;-67
2022/05/28 10:37:40;;;;;;;4.10;1.20;;;15.80;99.90;;;;;;5033578;28;20589;-67
2022/05/28 10:40:16;;;;;;;2.77;1.20;;;15.30;99.90;;;;;;5031765;28;20554;-68
2022/05/28 10:42:43;;;;;;;1.10;1.00;;;15.50;99.90;;;;;;5034189;28;20235;-67
2022/05/28 10:45:10;;;;;;;3.53;1.47;;;15.60;99.90;;;;;;5034492;28;20770;-67
2022/05/28 10:47:54;;;;;;;0.80;0.80;;;16.20;99.90;;;;;;5033355;28;20403;-67
2022/05/28 10:50:41;;;;;;;6.30;1.93;;;16.50;99.90;;;;;;5034699;28;20398;-68
2022/05/28 10:53:34;;;;;;;2.03;1.10;;;16.40;99.90;;;;;;5034249;28;20414;-67
2022/05/28 10:56:14;;;;;;;3.60;1.13;;;15.80;99.90;;;;;;5033036;28;20402;-67
2022/05/28 10:59:02;;;;;;;2.13;1.07;;;15.30;99.90;;;;;;5033143;28;20394;-67
2022/05/28 11:01:46;;;;;;;3.30;1.27;;;14.90;99.90;;;;;;5031723;28;20406;-67
2022/05/28 11:04:14;;;;;;;2.20;0.90;;;14.80;99.90;;;;;;5032998;28;20908;-67
2022/05/28 11:07:17;;;;;;;2.33;1.53;;;14.80;99.90;;;;;;5033066;28;20463;-67
2022/05/28 11:09:51;;;;;;;3.13;1.20;;;14.80;99.90;;;;;;5033428;28;20406;-67
2022/05/28 11:12:27;;;;;;;1.87;1.30;;;15.20;99.90;;;;;;5032774;28;20470;-68
2022/05/28 11:15:16;;;;;;;1.77;1.03;;;15.70;99.90;;;;;;5032637;28;20395;-67
2022/05/28 11:17:52;;;;;;;2.40;1.37;;;16.00;99.90;;;;;;5032946;28;20394;-68
2022/05/28 11:20:24;;;;;;;1.17;0.90;;;16.60;99.90;;;;;;5032747;28;20457;-67
2022/05/28 11:23:32;;;;;;;2.07;1.20;;;16.60;99.90;;;;;;5031120;28;20470;-68
2022/05/28 11:26:17;;;;;;;3.47;1.00;;;16.20;99.90;;;;;;5032560;28;20393;-66
2022/05/28 11:29:14;;;;;;;2.27;1.10;;;15.90;99.30;;;;;;5032467;28;20741;-67
2022/05/28 11:31:50;;;;;;;1.90;0.90;;;16.30;99.90;;;;;;5032266;28;20947;-67
2022/05/28 11:34:33;;;;;;;3.03;1.40;;;15.90;99.90;;;;;;5032557;28;20386;-67
2022/05/28 11:37:06;;;;;;;2.80;0.80;;;16.00;99.90;;;;;;5032411;28;20975;-67
2022/05/28 11:39:43;;;;;;;2.97;1.10;;;15.90;99.90;;;;;;5032311;28;20394;-67
2022/05/28 11:42:31;;;;;;;4.70;1.27;;;16.50;99.90;;;;;;5031996;28;20571;-67
2022/05/28 11:44:59;;;;;;;1.87;1.07;;;16.00;99.90;;;;;;5032071;28;20402;-67
2022/05/28 11:47:46;;;;;;;2.33;1.07;;;15.80;99.90;;;;;;5032105;28;20398;-67
2022/05/28 11:53:15;;;;;;;1.43;0.97;;;16.00;99.90;;;;;;5032061;28;20414;-67
2022/05/28 11:55:43;;;;;;;2.70;1.77;;;15.80;99.90;;;;;;5032002;28;20460;-67
2022/05/28 11:58:19;;;;;;;4.70;1.00;;;16.10;99.90;;;;;;5030846;28;20412;-67
2022/05/28 12:00:50;;;;;;;1.73;1.40;;;16.40;99.90;;;;;;5032089;28;20393;-67
2022/05/28 12:03:19;;;;;;;2.13;1.20;;;16.40;99.90;;;;;;5030334;28;20459;-68
2022/05/28 12:05:53;;;;;;;1.30;1.10;;;16.30;99.90;;;;;;5031685;28;20473;-68
2022/05/28 12:08:58;;;;;;;1.30;1.20;;;16.60;99.90;;;;;;5031975;28;20707;-66
2022/05/28 12:11:40;;;;;;;2.10;1.27;;;16.50;99.90;;;;;;5030170;28;20825;-66
2022/05/28 12:14:28;;;;;;;1.43;1.00;;;16.80;99.90;;;;;;5031840;28;20411;-67
2022/05/28 12:17:22;;;;;;;2.40;0.90;;;16.60;99.90;;;;;;5031732;28;20441;-67
2022/05/28 12:19:52;;;;;;;1.23;1.13;;;16.00;99.90;;;;;;5031772;28;20399;-67
2022/05/28 12:22:37;;;;;;;2.63;0.83;;;16.40;99.90;;;;;;5031677;28;20466;-66
2022/05/28 12:25:05;;;;;;;1.87;1.00;;;16.20;99.90;;;;;;5031457;28;20405;-66
2022/05/28 12:28:11;;;;;;;1.30;0.90;;;16.60;99.90;;;;;;5031442;28;20426;-68
2022/05/28 12:30:41;;;;;;;1.13;1.00;;;17.00;99.90;;;;;;5031455;28;20388;-66
2022/05/28 12:33:23;;;;;;;2.63;1.20;;;17.30;99.90;;;;;;5031031;28;20459;-66
2022/05/28 12:36:05;;;;;;;5.80;1.30;;;17.30;99.90;;;;;;5031412;28;20518;-67
2022/05/28 12:38:42;;;;;;;1.43;0.90;;;17.00;99.90;;;;;;5031896;28;20867;-66
2022/05/28 12:41:26;;;;;;;3.30;1.10;;;16.20;99.90;;;;;;5030433;28;20407;-67
2022/05/28 12:43:56;;;;;;;1.87;0.87;;;15.50;99.90;;;;;;5031984;28;20477;-67
2022/05/28 12:46:37;;;;;;;0.80;0.80;;;15.30;99.90;;;;;;5031229;28;20485;-67
2022/05/28 12:49:13;;;;;;;1.20;0.80;;;16.20;99.90;;;;;;5031571;28;20490;-67
2022/05/28 12:51:55;;;;;;;0.90;0.70;;;16.00;99.90;;;;;;5031313;28;20417;-67
2022/05/28 12:54:26;;;;;;;0.90;0.80;;;16.60;99.90;;;;;;5031079;28;20702;-67
2022/05/28 12:57:12;;;;;;;0.83;0.83;;;16.90;99.90;;;;;;5030316;28;20460;-67
2022/05/28 12:59:43;;;;;;;2.50;1.00;;;16.60;99.90;;;;;;5031243;28;20562;-67
2022/05/28 13:02:25;;;;;;;1.07;0.80;;;17.10;99.90;;;;;;5030921;28;20453;-66
2022/05/28 13:05:27;;;;;;;1.30;0.97;;;16.80;99.90;;;;;;5031285;28;20485;-67
2022/05/28 13:07:59;;;;;;;1.00;0.80;;;16.20;99.90;;;;;;5031213;28;20416;-66
2022/05/28 13:10:29;;;;;;;1.00;0.90;;;16.10;99.90;;;;;;5031384;28;20426;-67
2022/05/28 13:13:29;;;;;;;2.00;0.90;;;16.40;99.90;;;;;;5029983;28;20431;-68
2022/05/28 13:16:24;;;;;;;0.80;0.80;;;16.70;99.90;;;;;;5031272;28;20505;-66